UAE257 OBBI-OMDB
Flight info
| Callsign | UAE257 |
|---|---|
| Flight time | 0h 51m |
| Altitude | 25000 |
| Route | BHR345/30R BHR N697 SODAK P559 VUTEB |
| Aircraft | A35K/H-SDE2E3GHIJ3J4J5LM1ORWXY/LB1D1 |
Departure
| Time | 2026-04-25 12:02 |
|---|---|
| Airport | Bahrain International Airport (OBBI) |
Arrival
| Time | 2026-04-25 12:53 |
|---|---|
| Airport | Dubai International Airport (OMDB) |
| Time | Latitude | Longitude | Altitude | Speed | Heading |
|---|---|---|---|---|---|
| 2026-04-25 11:33 | 26.27068 | 50.62734 | 25 ft | 0 kts | 213° |
| 2026-04-25 11:50 | 26.27058 | 50.62725 | 20 ft | 4 kts | 219° |
| 2026-04-25 11:50 | 26.27056 | 50.62723 | 25 ft | 4 kts | 208° |
| 2026-04-25 11:50 | 26.27057 | 50.62733 | 25 ft | 4 kts | 94° |
| 2026-04-25 11:51 | 26.27069 | 50.62758 | 23 ft | 4 kts | 53° |
| 2026-04-25 11:51 | 26.27087 | 50.62780 | 25 ft | 4 kts | 47° |
| 2026-04-25 11:51 | 26.27093 | 50.62788 | 25 ft | 0 kts | 49° |
| 2026-04-25 11:54 | 26.27094 | 50.62787 | 22 ft | 0 kts | 8° |
| 2026-04-25 11:54 | 26.27095 | 50.62781 | 20 ft | 2 kts | 302° |
| 2026-04-25 11:55 | 26.27122 | 50.62737 | 23 ft | 12 kts | 303° |
| 2026-04-25 11:55 | 26.27175 | 50.62649 | 23 ft | 6 kts | 307° |
| 2026-04-25 11:55 | 26.27178 | 50.62645 | 23 ft | 0 kts | 306° |
| 2026-04-25 11:55 | 26.27181 | 50.62636 | 23 ft | 0 kts | 294° |
| 2026-04-25 11:56 | 26.27181 | 50.62633 | 23 ft | 1 kts | 286° |
| 2026-04-25 11:56 | 26.27195 | 50.62616 | 25 ft | 9 kts | 327° |
| 2026-04-25 11:56 | 26.27257 | 50.62669 | 24 ft | 15 kts | 80° |
| 2026-04-25 11:56 | 26.27224 | 50.62781 | 24 ft | 17 kts | 121° |
| 2026-04-25 11:57 | 26.27186 | 50.62849 | 22 ft | 1 kts | 122° |
| 2026-04-25 11:57 | 26.27176 | 50.62868 | 22 ft | 5 kts | 122° |
| 2026-04-25 11:57 | 26.27151 | 50.62911 | 24 ft | 9 kts | 122° |
| 2026-04-25 11:57 | 26.27098 | 50.62989 | 24 ft | 16 kts | 127° |
| 2026-04-25 11:58 | 26.27021 | 50.63117 | 22 ft | 23 kts | 121° |
| 2026-04-25 11:58 | 26.26928 | 50.63282 | 20 ft | 26 kts | 122° |
| 2026-04-25 11:58 | 26.26824 | 50.63461 | 19 ft | 29 kts | 122° |
| 2026-04-25 11:58 | 26.26715 | 50.63652 | 23 ft | 30 kts | 123° |
| 2026-04-25 11:59 | 26.26600 | 50.63851 | 23 ft | 31 kts | 123° |
| 2026-04-25 11:59 | 26.26479 | 50.64060 | 22 ft | 33 kts | 123° |
| 2026-04-25 11:59 | 26.26350 | 50.64282 | 21 ft | 35 kts | 123° |
| 2026-04-25 12:00 | 26.26078 | 50.64750 | 23 ft | 37 kts | 123° |
| 2026-04-25 12:00 | 26.26021 | 50.64933 | 25 ft | 16 kts | 57° |
| 2026-04-25 12:00 | 26.26157 | 50.64965 | 25 ft | 5 kts | 307° |
| 2026-04-25 12:01 | 26.26158 | 50.64963 | 25 ft | 0 kts | 306° |
| 2026-04-25 12:01 | 26.26158 | 50.64962 | 25 ft | 1 kts | 306° |
| 2026-04-25 12:01 | 26.26161 | 50.64959 | 25 ft | 0 kts | 306° |
| 2026-04-25 12:02 | 26.26557 | 50.64280 | 22 ft | 125 kts | 303° |
| 2026-04-25 12:02 | 26.27143 | 50.63266 | 49 ft | 183 kts | 303° |
| 2026-04-25 12:02 | 26.27843 | 50.62042 | 760 ft | 187 kts | 302° |
| 2026-04-25 12:03 | 26.28589 | 50.60852 | 1573 ft | 187 kts | 311° |
| 2026-04-25 12:03 | 26.29627 | 50.59979 | 2078 ft | 190 kts | 334° |
| 2026-04-25 12:03 | 26.30961 | 50.59608 | 2412 ft | 208 kts | 348° |
| 2026-04-25 12:03 | 26.32457 | 50.59306 | 2651 ft | 230 kts | 348° |
| 2026-04-25 12:04 | 26.34112 | 50.58970 | 2893 ft | 253 kts | 348° |
| 2026-04-25 12:04 | 26.35885 | 50.58618 | 3389 ft | 264 kts | 348° |
| 2026-04-25 12:04 | 26.37727 | 50.58278 | 3820 ft | 272 kts | 349° |
| 2026-04-25 12:04 | 26.39620 | 50.58090 | 4090 ft | 275 kts | 354° |
| 2026-04-25 12:05 | 26.41536 | 50.57983 | 4356 ft | 276 kts | 355° |
| 2026-04-25 12:05 | 26.43459 | 50.57892 | 4639 ft | 278 kts | 355° |
| 2026-04-25 12:05 | 26.45384 | 50.58156 | 4883 ft | 283 kts | 16° |
| 2026-04-25 12:05 | 26.47189 | 50.59059 | 5147 ft | 286 kts | 25° |
| 2026-04-25 12:06 | 26.48871 | 50.60256 | 5407 ft | 289 kts | 38° |
| 2026-04-25 12:06 | 26.50208 | 50.61936 | 5674 ft | 291 kts | 53° |
| 2026-04-25 12:06 | 26.51461 | 50.63718 | 5943 ft | 292 kts | 51° |
| 2026-04-25 12:06 | 26.52656 | 50.65556 | 6190 ft | 294 kts | 54° |
| 2026-04-25 12:07 | 26.53812 | 50.67440 | 6458 ft | 295 kts | 55° |
| 2026-04-25 12:07 | 26.54967 | 50.69345 | 6748 ft | 299 kts | 56° |
| 2026-04-25 12:07 | 26.56107 | 50.71305 | 7336 ft | 302 kts | 56° |
| 2026-04-25 12:07 | 26.57224 | 50.73275 | 7985 ft | 304 kts | 57° |
| 2026-04-25 12:08 | 26.58358 | 50.75290 | 8606 ft | 309 kts | 57° |
| 2026-04-25 12:08 | 26.59509 | 50.77333 | 9204 ft | 313 kts | 57° |
| 2026-04-25 12:08 | 26.60680 | 50.79403 | 9846 ft | 317 kts | 56° |
| 2026-04-25 12:08 | 26.61873 | 50.81504 | 10309 ft | 326 kts | 56° |
| 2026-04-25 12:09 | 26.63124 | 50.83697 | 10569 ft | 343 kts | 56° |
| 2026-04-25 12:09 | 26.64437 | 50.85993 | 10821 ft | 358 kts | 56° |
| 2026-04-25 12:09 | 26.65807 | 50.88392 | 11063 ft | 373 kts | 56° |
| 2026-04-25 12:09 | 26.67227 | 50.90882 | 11307 ft | 387 kts | 56° |
| 2026-04-25 12:10 | 26.68693 | 50.93456 | 11593 ft | 398 kts | 56° |
| 2026-04-25 12:10 | 26.70190 | 50.96085 | 12036 ft | 403 kts | 56° |
| 2026-04-25 12:10 | 26.71703 | 50.98747 | 12484 ft | 407 kts | 56° |
| 2026-04-25 12:10 | 26.73230 | 51.01434 | 12963 ft | 412 kts | 56° |
| 2026-04-25 12:11 | 26.74762 | 51.04153 | 13450 ft | 415 kts | 58° |
| 2026-04-25 12:11 | 26.75996 | 51.07083 | 13885 ft | 419 kts | 71° |
| 2026-04-25 12:11 | 26.76537 | 51.10288 | 14281 ft | 422 kts | 90° |
| 2026-04-25 12:11 | 26.76281 | 51.13551 | 14737 ft | 421 kts | 103° |
| 2026-04-25 12:12 | 26.75556 | 51.16732 | 15172 ft | 423 kts | 110° |
| 2026-04-25 12:12 | 26.74925 | 51.18800 | 15472 ft | 424 kts | 112° |
| 2026-04-25 12:12 | 26.73507 | 51.22885 | 16062 ft | 428 kts | 114° |
| 2026-04-25 12:12 | 26.72394 | 51.25985 | 16495 ft | 431 kts | 114° |
| 2026-04-25 12:13 | 26.71290 | 51.29121 | 16933 ft | 435 kts | 114° |
| 2026-04-25 12:13 | 26.70210 | 51.32293 | 17361 ft | 439 kts | 113° |
| 2026-04-25 12:13 | 26.69145 | 51.35509 | 17816 ft | 442 kts | 112° |
| 2026-04-25 12:13 | 26.68092 | 51.38749 | 18239 ft | 445 kts | 112° |
| 2026-04-25 12:14 | 26.67039 | 51.42016 | 18617 ft | 448 kts | 112° |
| 2026-04-25 12:14 | 26.65986 | 51.45296 | 19035 ft | 449 kts | 112° |
| 2026-04-25 12:14 | 26.64934 | 51.48593 | 19436 ft | 451 kts | 112° |
| 2026-04-25 12:14 | 26.63877 | 51.51898 | 19824 ft | 453 kts | 112° |
| 2026-04-25 12:15 | 26.62813 | 51.55214 | 20212 ft | 455 kts | 112° |
| 2026-04-25 12:15 | 26.61738 | 51.58557 | 20602 ft | 456 kts | 112° |
| 2026-04-25 12:15 | 26.60665 | 51.61889 | 21044 ft | 456 kts | 112° |
| 2026-04-25 12:15 | 26.59589 | 51.65228 | 21398 ft | 458 kts | 112° |
| 2026-04-25 12:16 | 26.58506 | 51.68579 | 21746 ft | 461 kts | 112° |
| 2026-04-25 12:16 | 26.57414 | 51.71961 | 22090 ft | 463 kts | 112° |
| 2026-04-25 12:16 | 26.56322 | 51.75346 | 22433 ft | 465 kts | 113° |
| 2026-04-25 12:16 | 26.55224 | 51.78752 | 22785 ft | 467 kts | 113° |
| 2026-04-25 12:17 | 26.54119 | 51.82162 | 23123 ft | 469 kts | 113° |
| 2026-04-25 12:17 | 26.53007 | 51.85587 | 23444 ft | 471 kts | 113° |
| 2026-04-25 12:17 | 26.51888 | 51.89034 | 23714 ft | 473 kts | 113° |
| 2026-04-25 12:17 | 26.50747 | 51.92503 | 23988 ft | 475 kts | 113° |
| 2026-04-25 12:18 | 26.49590 | 51.95971 | 24211 ft | 478 kts | 113° |
| 2026-04-25 12:18 | 26.48421 | 51.99460 | 24437 ft | 481 kts | 113° |
| 2026-04-25 12:18 | 26.47247 | 52.02966 | 24715 ft | 483 kts | 113° |
| 2026-04-25 12:18 | 26.46103 | 52.06384 | 24876 ft | 487 kts | 113° |
| 2026-04-25 12:19 | 26.44049 | 52.12514 | 24920 ft | 507 kts | 113° |
| 2026-04-25 12:19 | 26.42399 | 52.17456 | 24921 ft | 508 kts | 113° |
| 2026-04-25 12:19 | 26.41168 | 52.21145 | 24914 ft | 508 kts | 113° |
| 2026-04-25 12:20 | 26.39936 | 52.24831 | 24917 ft | 507 kts | 113° |
| 2026-04-25 12:20 | 26.38703 | 52.28513 | 24914 ft | 507 kts | 113° |
| 2026-04-25 12:20 | 26.37463 | 52.32208 | 24905 ft | 507 kts | 113° |
| 2026-04-25 12:20 | 26.36229 | 52.35882 | 24912 ft | 507 kts | 113° |
| 2026-04-25 12:21 | 26.35008 | 52.39510 | 24910 ft | 507 kts | 114° |
| 2026-04-25 12:21 | 26.33684 | 52.43202 | 24911 ft | 506 kts | 115° |
| 2026-04-25 12:21 | 26.32299 | 52.46806 | 24911 ft | 505 kts | 116° |
| 2026-04-25 12:21 | 26.30884 | 52.50390 | 24910 ft | 505 kts | 117° |
| 2026-04-25 12:22 | 26.29485 | 52.53924 | 24909 ft | 505 kts | 116° |
| 2026-04-25 12:22 | 26.28076 | 52.57506 | 24908 ft | 505 kts | 116° |
| 2026-04-25 12:22 | 26.26677 | 52.61093 | 24908 ft | 505 kts | 116° |
| 2026-04-25 12:22 | 26.25287 | 52.64680 | 24909 ft | 505 kts | 116° |
| 2026-04-25 12:23 | 26.23898 | 52.68279 | 24901 ft | 505 kts | 116° |
| 2026-04-25 12:23 | 26.22968 | 52.70706 | 24908 ft | 505 kts | 116° |
| 2026-04-25 12:23 | 26.21151 | 52.75463 | 24909 ft | 505 kts | 116° |
| 2026-04-25 12:23 | 26.19778 | 52.79054 | 24906 ft | 505 kts | 116° |
| 2026-04-25 12:24 | 26.18847 | 52.81487 | 24902 ft | 505 kts | 116° |
| 2026-04-25 12:24 | 26.17486 | 52.85039 | 24908 ft | 505 kts | 116° |
| 2026-04-25 12:24 | 26.16108 | 52.88633 | 24906 ft | 505 kts | 116° |
| 2026-04-25 12:24 | 26.14721 | 52.92243 | 24901 ft | 505 kts | 116° |
| 2026-04-25 12:25 | 26.13338 | 52.95840 | 24901 ft | 505 kts | 116° |
| 2026-04-25 12:25 | 26.11955 | 52.99434 | 24900 ft | 505 kts | 116° |
| 2026-04-25 12:25 | 26.10570 | 53.03029 | 24888 ft | 505 kts | 116° |
| 2026-04-25 12:25 | 26.09195 | 53.06632 | 24897 ft | 506 kts | 115° |
| 2026-04-25 12:26 | 26.07855 | 53.10246 | 24897 ft | 506 kts | 115° |
| 2026-04-25 12:26 | 26.06529 | 53.13880 | 24897 ft | 506 kts | 115° |
| 2026-04-25 12:26 | 26.05213 | 53.17499 | 24895 ft | 506 kts | 115° |
| 2026-04-25 12:26 | 26.03891 | 53.21125 | 24894 ft | 506 kts | 115° |
| 2026-04-25 12:27 | 26.02564 | 53.24751 | 24897 ft | 506 kts | 115° |
| 2026-04-25 12:27 | 26.01234 | 53.28372 | 24895 ft | 506 kts | 115° |
| 2026-04-25 12:27 | 25.99901 | 53.31989 | 24895 ft | 506 kts | 115° |
| 2026-04-25 12:27 | 25.98567 | 53.35600 | 24893 ft | 506 kts | 115° |
| 2026-04-25 12:28 | 25.97250 | 53.39159 | 24891 ft | 506 kts | 115° |
| 2026-04-25 12:28 | 25.95891 | 53.42829 | 24892 ft | 506 kts | 115° |
| 2026-04-25 12:28 | 25.94569 | 53.46395 | 24889 ft | 506 kts | 115° |
| 2026-04-25 12:28 | 25.93213 | 53.50051 | 24892 ft | 506 kts | 115° |
| 2026-04-25 12:29 | 25.91917 | 53.53640 | 24892 ft | 506 kts | 114° |
| 2026-04-25 12:29 | 25.90654 | 53.57292 | 24889 ft | 506 kts | 113° |
| 2026-04-25 12:29 | 25.89412 | 53.60950 | 24889 ft | 506 kts | 113° |
| 2026-04-25 12:29 | 25.88174 | 53.64609 | 24889 ft | 506 kts | 113° |
| 2026-04-25 12:30 | 25.86928 | 53.68273 | 24892 ft | 506 kts | 113° |
| 2026-04-25 12:30 | 25.85677 | 53.71927 | 24892 ft | 506 kts | 113° |
| 2026-04-25 12:30 | 25.84426 | 53.75573 | 24881 ft | 506 kts | 114° |
| 2026-04-25 12:30 | 25.83164 | 53.79216 | 24881 ft | 506 kts | 114° |
| 2026-04-25 12:31 | 25.81893 | 53.82871 | 24891 ft | 507 kts | 114° |
| 2026-04-25 12:31 | 25.80621 | 53.86522 | 24724 ft | 504 kts | 114° |
| 2026-04-25 12:31 | 25.79352 | 53.90163 | 24505 ft | 501 kts | 114° |
| 2026-04-25 12:31 | 25.78096 | 53.93767 | 24278 ft | 500 kts | 114° |
| 2026-04-25 12:32 | 25.76844 | 53.97356 | 24051 ft | 498 kts | 114° |
| 2026-04-25 12:32 | 25.75603 | 54.00910 | 23838 ft | 497 kts | 114° |
| 2026-04-25 12:32 | 25.74413 | 54.04437 | 23616 ft | 496 kts | 112° |
| 2026-04-25 12:32 | 25.73290 | 54.08041 | 23376 ft | 494 kts | 111° |
| 2026-04-25 12:33 | 25.72207 | 54.11654 | 23119 ft | 492 kts | 110° |
| 2026-04-25 12:33 | 25.71122 | 54.15304 | 22846 ft | 490 kts | 110° |
| 2026-04-25 12:33 | 25.70071 | 54.18831 | 22597 ft | 488 kts | 110° |
| 2026-04-25 12:33 | 25.69249 | 54.22479 | 22326 ft | 488 kts | 103° |
| 2026-04-25 12:34 | 25.68701 | 54.26163 | 22074 ft | 486 kts | 100° |
| 2026-04-25 12:34 | 25.68218 | 54.29889 | 21808 ft | 484 kts | 100° |
| 2026-04-25 12:34 | 25.67759 | 54.33569 | 21196 ft | 480 kts | 99° |
| 2026-04-25 12:34 | 25.67455 | 54.36037 | 20859 ft | 474 kts | 99° |
| 2026-04-25 12:35 | 25.66875 | 54.40780 | 20192 ft | 464 kts | 99° |
| 2026-04-25 12:35 | 25.66448 | 54.44271 | 19650 ft | 459 kts | 99° |
| 2026-04-25 12:35 | 25.66022 | 54.47747 | 19080 ft | 453 kts | 99° |
| 2026-04-25 12:35 | 25.65600 | 54.51187 | 18530 ft | 447 kts | 99° |
| 2026-04-25 12:36 | 25.65183 | 54.54584 | 17908 ft | 443 kts | 100° |
| 2026-04-25 12:36 | 25.64769 | 54.57941 | 17271 ft | 438 kts | 99° |
| 2026-04-25 12:36 | 25.64358 | 54.61271 | 16622 ft | 434 kts | 99° |
| 2026-04-25 12:36 | 25.63951 | 54.64570 | 15962 ft | 430 kts | 99° |
| 2026-04-25 12:37 | 25.63546 | 54.67835 | 15347 ft | 425 kts | 99° |
| 2026-04-25 12:37 | 25.63146 | 54.71067 | 14723 ft | 421 kts | 99° |
| 2026-04-25 12:37 | 25.62749 | 54.74263 | 14120 ft | 417 kts | 99° |
| 2026-04-25 12:37 | 25.62354 | 54.77435 | 13452 ft | 414 kts | 99° |
| 2026-04-25 12:38 | 25.61963 | 54.80576 | 12731 ft | 411 kts | 99° |
| 2026-04-25 12:38 | 25.61572 | 54.83700 | 12066 ft | 407 kts | 99° |
| 2026-04-25 12:38 | 25.60997 | 54.86741 | 11405 ft | 401 kts | 108° |
| 2026-04-25 12:38 | 25.60016 | 54.89614 | 10722 ft | 398 kts | 114° |
| 2026-04-25 12:39 | 25.58924 | 54.92419 | 10045 ft | 395 kts | 115° |
| 2026-04-25 12:39 | 25.57831 | 54.95192 | 9505 ft | 388 kts | 114° |
| 2026-04-25 12:39 | 25.56774 | 54.97884 | 9197 ft | 374 kts | 114° |
| 2026-04-25 12:39 | 25.55759 | 55.00474 | 8984 ft | 358 kts | 114° |
| 2026-04-25 12:40 | 25.54773 | 55.02932 | 8828 ft | 341 kts | 117° |
| 2026-04-25 12:40 | 25.53688 | 55.05201 | 8672 ft | 325 kts | 120° |
| 2026-04-25 12:40 | 25.52593 | 55.07329 | 8521 ft | 311 kts | 121° |
| 2026-04-25 12:40 | 25.51532 | 55.09364 | 8359 ft | 300 kts | 121° |
| 2026-04-25 12:41 | 25.50493 | 55.11356 | 8211 ft | 298 kts | 121° |
| 2026-04-25 12:41 | 25.49459 | 55.13340 | 8078 ft | 298 kts | 121° |
| 2026-04-25 12:41 | 25.48425 | 55.15327 | 8012 ft | 297 kts | 121° |
| 2026-04-25 12:41 | 25.47406 | 55.17286 | 8006 ft | 297 kts | 121° |
| 2026-04-25 12:42 | 25.46347 | 55.19248 | 8007 ft | 297 kts | 124° |
| 2026-04-25 12:42 | 25.45528 | 55.20492 | 8007 ft | 296 kts | 130° |
| 2026-04-25 12:42 | 25.43755 | 55.22755 | 8008 ft | 295 kts | 133° |
| 2026-04-25 12:42 | 25.42377 | 55.24434 | 8011 ft | 295 kts | 134° |
| 2026-04-25 12:43 | 25.40999 | 55.26111 | 8012 ft | 294 kts | 134° |
| 2026-04-25 12:43 | 25.39624 | 55.27789 | 8009 ft | 294 kts | 134° |
| 2026-04-25 12:43 | 25.36895 | 55.31131 | 8011 ft | 295 kts | 134° |
| 2026-04-25 12:44 | 25.35584 | 55.32880 | 8017 ft | 296 kts | 127° |
| 2026-04-25 12:44 | 25.34443 | 55.34773 | 7971 ft | 297 kts | 123° |
| 2026-04-25 12:44 | 25.32294 | 55.38652 | 7306 ft | 294 kts | 122° |
| 2026-04-25 12:45 | 25.31231 | 55.40582 | 6928 ft | 293 kts | 123° |
| 2026-04-25 12:45 | 25.30169 | 55.42500 | 6584 ft | 292 kts | 123° |
| 2026-04-25 12:45 | 25.28062 | 55.46289 | 5870 ft | 290 kts | 122° |
| 2026-04-25 12:46 | 25.27003 | 55.48191 | 5519 ft | 290 kts | 122° |
| 2026-04-25 12:46 | 25.25954 | 55.50084 | 5159 ft | 287 kts | 122° |
| 2026-04-25 12:46 | 25.24909 | 55.51963 | 4812 ft | 287 kts | 122° |
| 2026-04-25 12:46 | 25.23861 | 55.53840 | 4433 ft | 287 kts | 122° |
| 2026-04-25 12:47 | 25.22823 | 55.55706 | 4049 ft | 281 kts | 121° |
| 2026-04-25 12:47 | 25.21820 | 55.57504 | 3672 ft | 269 kts | 121° |
| 2026-04-25 12:47 | 25.20845 | 55.59197 | 3427 ft | 254 kts | 127° |
| 2026-04-25 12:47 | 25.19529 | 55.60399 | 3273 ft | 242 kts | 156° |
| 2026-04-25 12:48 | 25.17942 | 55.60705 | 3169 ft | 225 kts | 188° |
| 2026-04-25 12:48 | 25.16560 | 55.60105 | 3042 ft | 209 kts | 223° |
| 2026-04-25 12:48 | 25.15773 | 55.58832 | 2999 ft | 202 kts | 255° |
| 2026-04-25 12:48 | 25.15582 | 55.57312 | 2900 ft | 199 kts | 270° |
| 2026-04-25 12:49 | 25.15560 | 55.56303 | 2835 ft | 198 kts | 272° |
| 2026-04-25 12:49 | 25.15565 | 55.54263 | 2706 ft | 197 kts | 277° |
| 2026-04-25 12:49 | 25.16058 | 55.52934 | 2612 ft | 182 kts | 304° |
| 2026-04-25 12:49 | 25.16765 | 55.51796 | 2481 ft | 179 kts | 306° |
| 2026-04-25 12:50 | 25.17431 | 55.50655 | 2262 ft | 179 kts | 302° |
| 2026-04-25 12:50 | 25.18089 | 55.49449 | 2038 ft | 180 kts | 302° |
| 2026-04-25 12:50 | 25.18718 | 55.48304 | 1782 ft | 171 kts | 302° |
| 2026-04-25 12:50 | 25.19317 | 55.47221 | 1595 ft | 160 kts | 303° |
| 2026-04-25 12:51 | 25.19883 | 55.46202 | 1365 ft | 147 kts | 303° |
| 2026-04-25 12:51 | 25.20390 | 55.45287 | 1204 ft | 138 kts | 303° |
| 2026-04-25 12:51 | 25.20886 | 55.44391 | 1026 ft | 137 kts | 302° |
| 2026-04-25 12:51 | 25.21383 | 55.43492 | 877 ft | 138 kts | 303° |
| 2026-04-25 12:52 | 25.21884 | 55.42585 | 752 ft | 138 kts | 302° |
| 2026-04-25 12:52 | 25.22357 | 55.41681 | 568 ft | 134 kts | 304° |
| 2026-04-25 12:52 | 25.22856 | 55.40808 | 372 ft | 135 kts | 302° |
| 2026-04-25 12:52 | 25.23345 | 55.39918 | 186 ft | 136 kts | 304° |
| 2026-04-25 12:53 | 25.23843 | 55.39022 | 40 ft | 133 kts | 303° |
| 2026-04-25 12:53 | 25.24271 | 55.38262 | 36 ft | 100 kts | 301° |
| 2026-04-25 12:53 | 25.24582 | 55.37703 | 23 ft | 65 kts | 301° |
| 2026-04-25 12:53 | 25.24754 | 55.37366 | 20 ft | 35 kts | 289° |
| 2026-04-25 12:54 | 25.24784 | 55.37177 | 22 ft | 18 kts | 272° |
| 2026-04-25 12:54 | 25.24787 | 55.37025 | 22 ft | 21 kts | 275° |
| 2026-04-25 12:54 | 25.24804 | 55.36912 | 30 ft | 15 kts | 286° |
| 2026-04-25 12:54 | 25.24826 | 55.36858 | 31 ft | 8 kts | 295° |
| 2026-04-25 12:55 | 25.24857 | 55.36785 | 31 ft | 13 kts | 295° |
| 2026-04-25 12:55 | 25.24871 | 55.36731 | 30 ft | 4 kts | 281° |
| 2026-04-25 12:55 | 25.24887 | 55.36681 | 30 ft | 12 kts | 295° |
| 2026-04-25 12:55 | 25.24935 | 55.36584 | 28 ft | 16 kts | 300° |
| 2026-04-25 12:56 | 25.25000 | 55.36466 | 27 ft | 20 kts | 301° |
| 2026-04-25 12:56 | 25.25072 | 55.36333 | 28 ft | 23 kts | 301° |
| 2026-04-25 12:56 | 25.25149 | 55.36195 | 27 ft | 19 kts | 301° |
| 2026-04-25 12:56 | 25.25224 | 55.36059 | 25 ft | 21 kts | 302° |
| 2026-04-25 12:57 | 25.25270 | 55.35976 | 23 ft | 7 kts | 302° |
| 2026-04-25 12:57 | 25.25289 | 55.35943 | 23 ft | 7 kts | 302° |
| 2026-04-25 12:57 | 25.25322 | 55.35883 | 20 ft | 11 kts | 302° |
| 2026-04-25 12:57 | 25.25369 | 55.35801 | 22 ft | 11 kts | 302° |
| 2026-04-25 12:58 | 25.25394 | 55.35754 | 17 ft | 5 kts | 300° |
| 2026-04-25 12:58 | 25.25422 | 55.35704 | 19 ft | 12 kts | 301° |
| 2026-04-25 12:58 | 25.25461 | 55.35613 | 19 ft | 15 kts | 285° |
| 2026-04-25 12:58 | 25.25467 | 55.35494 | 18 ft | 16 kts | 263° |
| 2026-04-25 12:59 | 25.25406 | 55.35420 | 22 ft | 11 kts | 214° |
| 2026-04-25 12:59 | 25.25379 | 55.35399 | 21 ft | 0 kts | 213° |
| 2026-04-25 12:59 | 25.25373 | 55.35395 | 21 ft | 0 kts | 213° |